Time;durP1;ratioP1;P1;durP2;ratioP2;P2;SDS_P1;SDS_P2;PMS_P1;PMS_P2;Temp;Humidity;BMP_temperature;BMP_pressure;BME280_temperature;BME280_humidity;BME280_pressure;Samples;Min_cycle;Max_cycle;Signal;HPM_P1;HPM_P2
2022/07/27 00:01:38;;;;;;;22.25;17.52;;;;;;;;;;5055373;28;20037;-85
2022/07/27 00:04:05;;;;;;;20.15;17.00;;;;;;;;;;5037417;28;20030;-85
2022/07/27 00:06:31;;;;;;;21.80;17.55;;;;;;;;;;5020929;28;20025;-85
2022/07/27 00:08:57;;;;;;;23.15;18.17;;;;;;;;;;5029816;28;20029;-85
2022/07/27 00:11:23;;;;;;;22.92;19.58;;;;;;;;;;5037349;28;20074;-85
2022/07/27 00:13:49;;;;;;;26.95;19.40;;;;;;;;;;5024655;28;20128;-85
2022/07/27 00:16:15;;;;;;;20.95;16.95;;;;;;;;;;5037080;28;20029;-84
2022/07/27 00:18:41;;;;;;;24.13;18.92;;;;;;;;;;5052287;28;20036;-85
2022/07/27 00:21:08;;;;;;;23.50;18.38;;;;;;;;;;5054766;28;20116;-85
2022/07/27 00:23:34;;;;;;;23.60;18.00;;;;;;;;;;5060899;28;20032;-85
2022/07/27 00:26:00;;;;;;;22.67;17.75;;;;;;;;;;5036652;28;20033;-84
2022/07/27 00:28:26;;;;;;;22.20;17.33;;;;;;;;;;5037966;28;20380;-84
2022/07/27 00:30:52;;;;;;;21.58;17.35;;;;;;;;;;5054041;28;20021;-84
2022/07/27 00:33:18;;;;;;;19.60;16.88;;;;;;;;;;5035568;28;20033;-84
2022/07/27 00:35:44;;;;;;;21.52;19.20;;;;;;;;;;5036870;28;20025;-84
2022/07/27 00:38:10;;;;;;;21.98;18.30;;;;;;;;;;5053965;28;20032;-83
2022/07/27 00:40:36;;;;;;;23.02;18.83;;;;;;;;;;5054118;28;20078;-84
2022/07/27 00:43:02;;;;;;;22.08;19.30;;;;;;;;;;5035260;28;20029;-84
2022/07/27 00:45:28;;;;;;;22.85;18.88;;;;;;;;;;5052155;28;20021;-85
2022/07/27 00:47:54;;;;;;;22.88;18.83;;;;;;;;;;5053664;28;20024;-84
2022/07/27 00:50:20;;;;;;;22.25;19.52;;;;;;;;;;5058066;28;20032;-84
2022/07/27 00:52:47;;;;;;;23.10;18.92;;;;;;;;;;5053823;28;20029;-84
2022/07/27 00:55:13;;;;;;;25.00;21.30;;;;;;;;;;5072851;28;20028;-84
2022/07/27 00:57:40;;;;;;;23.27;19.80;;;;;;;;;;5056655;28;20033;-84
2022/07/27 01:00:06;;;;;;;23.42;19.60;;;;;;;;;;5045784;28;20029;-84
2022/07/27 01:02:32;;;;;;;23.80;21.13;;;;;;;;;;5055583;28;20029;-84
2022/07/27 01:04:59;;;;;;;26.05;20.10;;;;;;;;;;5054586;28;20021;-84
2022/07/27 01:07:25;;;;;;;25.30;20.52;;;;;;;;;;5036463;28;20056;-84
2022/07/27 01:09:57;;;;;;;25.67;20.70;;;;;;;;;;5048653;28;20028;-84
2022/07/27 01:12:30;;;;;;;24.90;20.63;;;;;;;;;;5058939;28;20024;-84
2022/07/27 01:14:57;;;;;;;21.98;19.13;;;;;;;;;;5054791;28;20259;-84
2022/07/27 01:17:23;;;;;;;24.52;20.73;;;;;;;;;;5036574;28;20027;-84
2022/07/27 01:19:49;;;;;;;23.17;19.42;;;;;;;;;;5035160;28;20032;-84
2022/07/27 01:22:15;;;;;;;22.25;18.90;;;;;;;;;;5053657;28;20024;-84
2022/07/27 01:24:41;;;;;;;23.15;20.02;;;;;;;;;;5035952;28;20059;-84
2022/07/27 01:27:07;;;;;;;22.92;18.45;;;;;;;;;;5054073;28;20083;-84
2022/07/27 01:29:34;;;;;;;24.42;19.13;;;;;;;;;;5051100;28;20037;-84
2022/07/27 01:32:00;;;;;;;25.60;19.70;;;;;;;;;;5039573;28;20058;-84
2022/07/27 01:34:26;;;;;;;22.65;20.08;;;;;;;;;;5063539;28;20454;-84
2022/07/27 01:36:53;;;;;;;22.30;18.77;;;;;;;;;;5057839;28;20055;-84
2022/07/27 01:39:19;;;;;;;24.17;19.10;;;;;;;;;;5052939;28;20040;-84
2022/07/27 01:41:45;;;;;;;23.88;18.85;;;;;;;;;;5035548;28;20055;-84
2022/07/27 01:44:11;;;;;;;23.95;19.85;;;;;;;;;;5039356;28;20506;-84
2022/07/27 01:46:37;;;;;;;22.30;18.38;;;;;;;;;;5055417;28;20052;-84
2022/07/27 01:49:04;;;;;;;22.77;20.17;;;;;;;;;;5056615;28;20099;-84
2022/07/27 01:51:30;;;;;;;25.55;20.42;;;;;;;;;;5055121;28;20021;-84
2022/07/27 01:53:56;;;;;;;23.92;19.13;;;;;;;;;;5035207;28;20049;-84
2022/07/27 01:56:22;;;;;;;23.05;20.17;;;;;;;;;;5057285;28;20036;-84
2022/07/27 01:58:48;;;;;;;23.67;19.45;;;;;;;;;;5054450;28;20074;-84
2022/07/27 02:01:14;;;;;;;22.75;19.15;;;;;;;;;;5056297;28;20115;-84
2022/07/27 02:03:40;;;;;;;20.65;18.33;;;;;;;;;;5070031;28;20306;-84
2022/07/27 02:06:06;;;;;;;24.33;20.50;;;;;;;;;;5057876;28;20321;-84
2022/07/27 02:08:33;;;;;;;24.85;20.73;;;;;;;;;;5054744;28;20361;-84
2022/07/27 02:13:46;;;;;;;21.25;18.02;;;;;;;;;;5057352;28;20089;-84
2022/07/27 02:16:12;;;;;;;21.60;18.17;;;;;;;;;;5052536;28;20120;-84
2022/07/27 02:18:38;;;;;;;21.95;18.55;;;;;;;;;;5053722;28;20510;-83
2022/07/27 02:21:05;;;;;;;24.30;20.55;;;;;;;;;;5056344;28;20036;-84
2022/07/27 02:23:31;;;;;;;23.42;19.23;;;;;;;;;;5036364;28;20029;-83
2022/07/27 02:25:57;;;;;;;20.88;18.17;;;;;;;;;;5053639;28;20044;-84
2022/07/27 02:28:23;;;;;;;24.83;20.00;;;;;;;;;;5054519;28;20045;-83
2022/07/27 02:30:49;;;;;;;24.00;19.33;;;;;;;;;;5054134;28;20027;-84
2022/07/27 02:33:15;;;;;;;21.60;18.92;;;;;;;;;;5057745;28;20067;-84
2022/07/27 02:35:43;;;;;;;22.80;19.23;;;;;;;;;;5053315;28;20396;-84
2022/07/27 02:38:09;;;;;;;23.67;18.85;;;;;;;;;;5034134;28;20029;-84
2022/07/27 02:40:35;;;;;;;20.13;17.63;;;;;;;;;;5049434;28;20027;-84
2022/07/27 02:43:01;;;;;;;20.73;17.58;;;;;;;;;;5054466;28;20074;-84
2022/07/27 02:45:27;;;;;;;21.95;19.10;;;;;;;;;;5036361;28;20028;-83
2022/07/27 02:47:53;;;;;;;20.63;18.15;;;;;;;;;;5053387;28;20051;-83
2022/07/27 02:50:19;;;;;;;21.42;18.38;;;;;;;;;;5038054;28;20437;-84
2022/07/27 02:52:45;;;;;;;23.00;19.75;;;;;;;;;;5058948;28;20017;-83
2022/07/27 02:55:11;;;;;;;24.58;19.42;;;;;;;;;;5056003;28;20060;-84
2022/07/27 02:57:39;;;;;;;21.48;18.80;;;;;;;;;;5036898;28;20037;-84
2022/07/27 03:00:10;;;;;;;22.83;19.23;;;;;;;;;;5053654;28;20024;-84
2022/07/27 03:02:37;;;;;;;21.63;18.48;;;;;;;;;;5053061;28;20029;-83
2022/07/27 03:05:04;;;;;;;22.90;19.13;;;;;;;;;;5059598;28;20030;-83
2022/07/27 03:07:30;;;;;;;21.02;18.10;;;;;;;;;;5055899;28;20029;-84
2022/07/27 03:09:56;;;;;;;24.00;18.77;;;;;;;;;;5035649;28;20113;-84
2022/07/27 03:12:22;;;;;;;21.98;19.02;;;;;;;;;;5055624;28;20105;-84
2022/07/27 03:14:48;;;;;;;20.70;16.95;;;;;;;;;;5070273;28;20028;-84
2022/07/27 03:17:14;;;;;;;21.15;18.38;;;;;;;;;;5054583;28;20051;-83
2022/07/27 03:19:40;;;;;;;21.13;18.80;;;;;;;;;;5052361;28;20029;-83
2022/07/27 03:22:06;;;;;;;22.50;18.40;;;;;;;;;;5051458;28;20499;-85
2022/07/27 03:24:32;;;;;;;23.38;18.90;;;;;;;;;;5061036;28;20032;-84
2022/07/27 03:26:58;;;;;;;20.98;17.17;;;;;;;;;;5053132;28;20032;-84
2022/07/27 03:29:24;;;;;;;21.58;18.92;;;;;;;;;;5053126;28;20047;-84
2022/07/27 03:31:50;;;;;;;21.85;18.60;;;;;;;;;;5052980;28;20031;-84
2022/07/27 03:34:16;;;;;;;20.10;17.27;;;;;;;;;;5048920;28;20484;-84
2022/07/27 03:36:42;;;;;;;19.67;16.77;;;;;;;;;;5035771;28;20025;-84
2022/07/27 03:39:08;;;;;;;20.42;17.30;;;;;;;;;;5055824;28;20475;-84
2022/07/27 03:41:34;;;;;;;20.42;17.85;;;;;;;;;;5037721;28;20029;-84
2022/07/27 03:44:00;;;;;;;20.00;17.27;;;;;;;;;;5040098;28;20462;-84
2022/07/27 03:46:26;;;;;;;22.13;18.10;;;;;;;;;;5055675;28;20571;-85
2022/07/27 03:48:52;;;;;;;21.88;17.95;;;;;;;;;;5055971;28;20020;-84
2022/07/27 03:51:19;;;;;;;19.10;17.10;;;;;;;;;;5038764;28;20021;-84
2022/07/27 03:53:46;;;;;;;19.55;16.75;;;;;;;;;;5061973;28;20425;-84
2022/07/27 03:56:12;;;;;;;17.80;15.90;;;;;;;;;;5046785;28;20033;-84
2022/07/27 03:58:38;;;;;;;17.05;15.32;;;;;;;;;;5063356;28;20035;-84
2022/07/27 04:01:04;;;;;;;18.02;15.85;;;;;;;;;;5054291;28;20032;-84
2022/07/27 04:03:30;;;;;;;18.80;15.85;;;;;;;;;;5076479;28;20013;-84
2022/07/27 04:05:56;;;;;;;17.63;15.23;;;;;;;;;;5069687;28;20449;-85
2022/07/27 04:08:22;;;;;;;22.20;17.23;;;;;;;;;;5057192;28;20512;-84
2022/07/27 04:10:48;;;;;;;20.35;17.13;;;;;;;;;;5049258;28;20025;-84
2022/07/27 04:13:14;;;;;;;19.70;16.73;;;;;;;;;;5049134;28;20054;-85
2022/07/27 04:15:40;;;;;;;19.45;16.83;;;;;;;;;;5058176;28;20025;-84
2022/07/27 04:18:06;;;;;;;19.15;16.95;;;;;;;;;;5041509;28;20448;-84
2022/07/27 04:20:32;;;;;;;21.63;18.42;;;;;;;;;;5046426;28;20089;-84
2022/07/27 04:22:58;;;;;;;22.15;18.25;;;;;;;;;;5038874;28;20371;-84
2022/07/27 04:25:24;;;;;;;21.40;18.70;;;;;;;;;;5057201;28;20022;-85
2022/07/27 04:27:53;;;;;;;22.67;19.88;;;;;;;;;;5056890;28;20079;-85
2022/07/27 04:30:19;;;;;;;22.92;19.75;;;;;;;;;;5033563;28;20382;-85
2022/07/27 04:32:45;;;;;;;22.67;19.27;;;;;;;;;;5036585;28;20025;-84
2022/07/27 04:35:11;;;;;;;22.80;19.70;;;;;;;;;;5058345;28;20025;-85
2022/07/27 04:37:37;;;;;;;23.67;19.73;;;;;;;;;;5061248;28;20483;-84
2022/07/27 04:40:03;;;;;;;22.33;19.33;;;;;;;;;;5063615;28;20351;-84
2022/07/27 04:42:30;;;;;;;24.55;19.80;;;;;;;;;;5049817;28;20115;-84
2022/07/27 04:44:56;;;;;;;25.65;21.23;;;;;;;;;;5075238;28;20525;-84
2022/07/27 04:47:22;;;;;;;25.80;20.80;;;;;;;;;;5057873;28;20394;-84
2022/07/27 04:49:48;;;;;;;25.88;22.27;;;;;;;;;;5062778;28;20021;-85
2022/07/27 04:52:14;;;;;;;24.75;21.00;;;;;;;;;;5061763;28;20025;-85
2022/07/27 04:54:41;;;;;;;30.42;22.77;;;;;;;;;;5055400;28;20047;-84
2022/07/27 04:57:07;;;;;;;23.17;20.67;;;;;;;;;;5050897;28;20107;-85
2022/07/27 04:59:33;;;;;;;23.02;19.77;;;;;;;;;;5053312;28;20063;-84
2022/07/27 05:01:59;;;;;;;22.45;19.50;;;;;;;;;;5061008;28;20495;-84
2022/07/27 05:04:25;;;;;;;21.65;19.30;;;;;;;;;;5037740;28;20029;-84
2022/07/27 05:06:50;;;;;;;24.52;20.50;;;;;;;;;;5044734;28;20036;-84
2022/07/27 05:09:17;;;;;;;22.55;19.20;;;;;;;;;;5065660;28;20413;-85
2022/07/27 05:11:42;;;;;;;22.60;19.55;;;;;;;;;;5055679;28;20095;-83
2022/07/27 05:14:09;;;;;;;22.60;18.20;;;;;;;;;;5055626;28;20021;-83
2022/07/27 05:16:34;;;;;;;21.77;18.42;;;;;;;;;;5057765;28;20025;-83
2022/07/27 05:19:00;;;;;;;20.67;18.02;;;;;;;;;;5055410;28;20609;-83
2022/07/27 05:21:28;;;;;;;20.10;17.42;;;;;;;;;;5061817;28;20080;-84
2022/07/27 05:23:54;;;;;;;18.92;16.33;;;;;;;;;;5049792;28;20471;-85
2022/07/27 05:26:21;;;;;;;19.48;16.33;;;;;;;;;;5037319;28;20021;-84
2022/07/27 05:28:47;;;;;;;20.60;17.25;;;;;;;;;;5036836;28;20132;-84
2022/07/27 05:31:13;;;;;;;20.52;16.85;;;;;;;;;;5054223;28;20387;-84
2022/07/27 05:33:39;;;;;;;20.48;18.13;;;;;;;;;;5051865;28;20021;-85
2022/07/27 05:36:05;;;;;;;22.08;16.60;;;;;;;;;;5052044;28;20509;-85
2022/07/27 05:38:37;;;;;;;15.32;13.48;;;;;;;;;;5035264;28;20029;-85
2022/07/27 05:41:04;;;;;;;15.25;12.95;;;;;;;;;;5049541;28;20025;-84
2022/07/27 05:43:30;;;;;;;14.40;12.02;;;;;;;;;;5032325;28;20043;-84
2022/07/27 05:45:56;;;;;;;14.88;12.02;;;;;;;;;;5055814;28;20032;-85
2022/07/27 05:48:22;;;;;;;13.38;10.50;;;;;;;;;;5033724;28;20293;-85
2022/07/27 05:50:48;;;;;;;15.45;12.70;;;;;;;;;;5031811;28;20025;-85
2022/07/27 05:53:14;;;;;;;11.55;9.65;;;;;;;;;;5051157;28;20025;-84
2022/07/27 05:55:40;;;;;;;12.43;9.77;;;;;;;;;;5056662;28;20040;-85
2022/07/27 05:58:06;;;;;;;12.32;9.35;;;;;;;;;;5066764;28;20119;-85
2022/07/27 06:00:32;;;;;;;7.82;5.88;;;;;;;;;;5051534;28;20195;-84
2022/07/27 06:02:58;;;;;;;8.57;6.10;;;;;;;;;;5050330;28;20030;-85
2022/07/27 06:05:24;;;;;;;8.85;6.72;;;;;;;;;;5047536;28;20025;-85
2022/07/27 06:07:59;;;;;;;8.70;6.22;;;;;;;;;;5032358;28;20536;-85
2022/07/27 06:10:35;;;;;;;7.30;5.90;;;;;;;;;;5051997;28;20036;-85
2022/07/27 06:13:06;;;;;;;8.30;6.43;;;;;;;;;;5051574;28;20108;-84
2022/07/27 06:15:32;;;;;;;9.38;6.55;;;;;;;;;;5055059;28;20021;-85
2022/07/27 06:17:58;;;;;;;8.63;6.07;;;;;;;;;;5038463;28;20025;-85
2022/07/27 06:20:24;;;;;;;9.95;6.57;;;;;;;;;;5049921;28;20415;-85
2022/07/27 06:22:50;;;;;;;9.55;7.38;;;;;;;;;;5031947;28;20017;-85
2022/07/27 06:25:17;;;;;;;8.38;5.80;;;;;;;;;;5037444;28;20055;-85
2022/07/27 06:27:44;;;;;;;8.18;6.30;;;;;;;;;;5050185;28;20075;-86
2022/07/27 06:30:10;;;;;;;7.63;6.38;;;;;;;;;;5029479;28;20308;-86
2022/07/27 06:32:37;;;;;;;7.93;5.93;;;;;;;;;;5033388;28;20025;-85
2022/07/27 06:35:03;;;;;;;8.07;6.15;;;;;;;;;;5055304;28;20020;-85
2022/07/27 06:37:30;;;;;;;9.13;6.88;;;;;;;;;;5037865;28;20033;-85
2022/07/27 06:39:59;;;;;;;7.65;6.65;;;;;;;;;;5032609;28;20040;-86
2022/07/27 06:42:26;;;;;;;7.75;6.53;;;;;;;;;;5029313;28;20163;-85
2022/07/27 06:44:52;;;;;;;9.48;7.07;;;;;;;;;;5021618;28;20017;-85
2022/07/27 06:47:18;;;;;;;9.45;7.28;;;;;;;;;;5051655;28;20036;-85
2022/07/27 06:49:44;;;;;;;9.77;8.43;;;;;;;;;;5052166;28;20026;-84
2022/07/27 06:52:10;;;;;;;9.73;7.40;;;;;;;;;;5066635;28;20047;-84
2022/07/27 06:54:36;;;;;;;11.38;7.32;;;;;;;;;;5051937;28;20099;-85
2022/07/27 06:57:02;;;;;;;8.68;7.22;;;;;;;;;;5045177;28;20460;-85
2022/07/27 06:59:30;;;;;;;8.65;7.00;;;;;;;;;;5036071;28;20025;-85
2022/07/27 07:01:56;;;;;;;9.25;7.80;;;;;;;;;;5044516;28;20505;-86
2022/07/27 07:04:22;;;;;;;9.57;6.95;;;;;;;;;;5050165;28;20100;-85
2022/07/27 07:06:49;;;;;;;8.80;7.60;;;;;;;;;;5048531;28;20029;-86
2022/07/27 07:09:15;;;;;;;8.48;6.95;;;;;;;;;;5054962;28;20052;-85
2022/07/27 07:11:41;;;;;;;9.15;7.15;;;;;;;;;;5035822;28;20018;-84
2022/07/27 07:14:07;;;;;;;11.60;7.80;;;;;;;;;;5044911;28;20108;-85
2022/07/27 07:16:33;;;;;;;9.32;7.57;;;;;;;;;;5071521;28;20020;-85
2022/07/27 07:18:59;;;;;;;8.85;7.50;;;;;;;;;;5065719;28;20025;-85
2022/07/27 07:21:25;;;;;;;9.27;7.20;;;;;;;;;;5041074;28;20395;-85
2022/07/27 07:23:51;;;;;;;10.13;8.55;;;;;;;;;;5057182;28;20025;-85
2022/07/27 07:26:17;;;;;;;9.98;7.55;;;;;;;;;;5053777;28;20043;-87
2022/07/27 07:28:43;;;;;;;8.45;7.50;;;;;;;;;;5038014;28;20049;-86
2022/07/27 07:31:09;;;;;;;9.07;7.57;;;;;;;;;;5054907;28;20101;-87
2022/07/27 07:33:35;;;;;;;9.77;7.15;;;;;;;;;;5053362;28;20419;-85
2022/07/27 07:36:02;;;;;;;9.43;7.60;;;;;;;;;;5036124;28;20505;-84
2022/07/27 07:38:28;;;;;;;8.73;7.80;;;;;;;;;;5053090;28;20044;-84
2022/07/27 07:40:54;;;;;;;10.48;8.00;;;;;;;;;;5055930;28;20025;-85
2022/07/27 07:43:20;;;;;;;9.85;7.97;;;;;;;;;;5036590;28;20029;-85
2022/07/27 07:45:46;;;;;;;9.15;8.07;;;;;;;;;;5055791;28;20406;-85
2022/07/27 07:48:12;;;;;;;9.30;7.50;;;;;;;;;;5056872;28;20111;-86
2022/07/27 07:50:38;;;;;;;8.55;7.45;;;;;;;;;;5059628;28;20029;-86
2022/07/27 07:53:04;;;;;;;10.25;8.32;;;;;;;;;;5054510;28;20020;-85
2022/07/27 07:55:30;;;;;;;10.02;8.20;;;;;;;;;;5038195;28;20052;-85
2022/07/27 07:57:58;;;;;;;9.65;8.52;;;;;;;;;;5035375;28;20053;-85
2022/07/27 08:00:24;;;;;;;10.07;8.60;;;;;;;;;;5033531;28;20021;-84
2022/07/27 08:02:52;;;;;;;10.35;9.13;;;;;;;;;;5054685;28;20025;-85
2022/07/27 08:05:18;;;;;;;9.90;8.45;;;;;;;;;;5042919;28;20031;-85
2022/07/27 08:07:47;;;;;;;9.05;7.60;;;;;;;;;;5027499;28;20033;-86
2022/07/27 08:10:14;;;;;;;10.85;8.32;;;;;;;;;;5032564;28;20104;-85
2022/07/27 08:12:42;;;;;;;10.90;9.20;;;;;;;;;;5036183;28;20538;-86
2022/07/27 08:15:09;;;;;;;10.55;8.57;;;;;;;;;;5053899;28;20033;-84
2022/07/27 08:17:35;;;;;;;9.77;8.75;;;;;;;;;;5054147;28;20124;-85
2022/07/27 08:20:01;;;;;;;9.20;8.20;;;;;;;;;;5037275;28;20028;-85
2022/07/27 08:22:27;;;;;;;11.68;9.48;;;;;;;;;;5037049;28;20029;-85
2022/07/27 08:24:53;;;;;;;10.52;8.90;;;;;;;;;;5054922;28;20025;-85
2022/07/27 08:27:19;;;;;;;10.20;9.05;;;;;;;;;;5054330;28;20037;-85
2022/07/27 08:29:45;;;;;;;10.15;8.77;;;;;;;;;;5056948;28;20551;-85
2022/07/27 08:32:11;;;;;;;9.65;7.97;;;;;;;;;;5043063;28;20118;-85
2022/07/27 08:34:37;;;;;;;8.45;7.47;;;;;;;;;;5035184;28;20514;-84
2022/07/27 08:37:03;;;;;;;9.00;7.90;;;;;;;;;;5048699;28;20040;-85
2022/07/27 08:39:29;;;;;;;9.93;8.38;;;;;;;;;;5036435;28;20017;-85
2022/07/27 08:41:57;;;;;;;11.00;9.05;;;;;;;;;;5037030;28;20021;-84
2022/07/27 08:44:26;;;;;;;10.07;8.25;;;;;;;;;;5029976;28;20029;-85
2022/07/27 08:46:53;;;;;;;10.25;9.23;;;;;;;;;;5058969;28;20035;-85
2022/07/27 08:49:19;;;;;;;10.20;8.70;;;;;;;;;;5034864;28;20056;-84
2022/07/27 08:51:45;;;;;;;10.80;9.70;;;;;;;;;;5055727;28;20021;-84
2022/07/27 08:54:14;;;;;;;10.50;9.35;;;;;;;;;;5037554;28;20459;-84
2022/07/27 08:56:40;;;;;;;11.45;10.25;;;;;;;;;;5066530;28;20036;-84
2022/07/27 08:59:06;;;;;;;11.07;9.80;;;;;;;;;;5045043;28;20024;-85
2022/07/27 09:01:33;;;;;;;11.60;10.40;;;;;;;;;;5051623;28;20040;-84
2022/07/27 09:03:59;;;;;;;10.90;9.80;;;;;;;;;;5054139;28;20095;-85
2022/07/27 09:06:45;;;;;;;12.90;10.70;;;;;;;;;;5048880;28;20047;-85
2022/07/27 09:09:12;;;;;;;10.90;9.80;;;;;;;;;;5037720;28;20021;-85
2022/07/27 09:11:38;;;;;;;10.35;9.35;;;;;;;;;;5066828;28;20025;-85
2022/07/27 09:14:06;;;;;;;10.85;9.52;;;;;;;;;;5034769;28;20037;-85
2022/07/27 09:16:32;;;;;;;10.88;9.65;;;;;;;;;;5035045;28;20055;-85
2022/07/27 09:18:59;;;;;;;10.43;9.15;;;;;;;;;;5053237;28;20021;-85
2022/07/27 09:21:25;;;;;;;11.23;10.13;;;;;;;;;;5054963;28;20061;-85
2022/07/27 09:23:54;;;;;;;10.95;9.57;;;;;;;;;;5035314;28;20432;-85
2022/07/27 09:26:22;;;;;;;10.35;9.35;;;;;;;;;;5058001;28;20031;-85
2022/07/27 09:28:52;;;;;;;11.05;10.02;;;;;;;;;;5053311;28;20041;-85
2022/07/27 09:31:18;;;;;;;11.38;10.00;;;;;;;;;;5053475;28;20025;-84
2022/07/27 09:33:49;;;;;;;11.80;10.60;;;;;;;;;;5035716;28;20021;-84
2022/07/27 09:36:16;;;;;;;12.93;11.63;;;;;;;;;;5065896;28;20056;-85
2022/07/27 09:38:52;;;;;;;11.77;10.57;;;;;;;;;;5052641;28;20025;-85
2022/07/27 09:41:18;;;;;;;10.77;9.68;;;;;;;;;;5055324;28;20349;-84
2022/07/27 09:43:54;;;;;;;10.38;9.35;;;;;;;;;;5052374;28;20033;-85
2022/07/27 09:46:30;;;;;;;10.45;9.30;;;;;;;;;;5047844;28;20024;-85
2022/07/27 09:48:56;;;;;;;10.70;9.60;;;;;;;;;;5050660;28;20495;-85
2022/07/27 09:51:24;;;;;;;10.27;9.10;;;;;;;;;;5049382;28;20017;-85
2022/07/27 09:53:50;;;;;;;10.98;9.88;;;;;;;;;;5055170;28;20032;-85
2022/07/27 09:56:16;;;;;;;11.38;10.18;;;;;;;;;;5051807;28;20040;-85
2022/07/27 09:58:50;;;;;;;10.35;9.25;;;;;;;;;;5046943;28;20057;-85
2022/07/27 10:01:16;;;;;;;10.82;9.57;;;;;;;;;;5034654;28;20115;-85
2022/07/27 10:03:43;;;;;;;12.48;9.77;;;;;;;;;;5037115;28;20063;-85
2022/07/27 10:06:09;;;;;;;11.07;9.50;;;;;;;;;;5036126;28;20033;-85
2022/07/27 10:08:39;;;;;;;11.02;9.93;;;;;;;;;;5037512;28;20029;-84
2022/07/27 10:11:05;;;;;;;10.95;8.43;;;;;;;;;;5037202;28;20221;-85
2022/07/27 10:13:32;;;;;;;9.63;8.63;;;;;;;;;;5038633;28;20032;-85
2022/07/27 10:15:58;;;;;;;10.68;9.57;;;;;;;;;;5053832;28;20494;-85
2022/07/27 10:18:31;;;;;;;10.25;9.13;;;;;;;;;;5062939;28;20024;-85
2022/07/27 10:21:02;;;;;;;11.18;10.02;;;;;;;;;;5039717;28;20399;-85
2022/07/27 10:23:28;;;;;;;14.57;11.55;;;;;;;;;;5054443;28;20032;-84
2022/07/27 10:26:13;;;;;;;13.82;11.98;;;;;;;;;;5060208;28;20021;-85
2022/07/27 10:28:50;;;;;;;14.70;12.38;;;;;;;;;;5047946;28;20041;-85
2022/07/27 10:31:18;;;;;;;12.15;10.60;;;;;;;;;;5055799;28;20028;-85
2022/07/27 10:33:45;;;;;;;12.25;10.60;;;;;;;;;;5056690;28;20021;-85
2022/07/27 10:36:23;;;;;;;12.85;10.60;;;;;;;;;;5041065;28;20079;-85
2022/07/27 10:38:50;;;;;;;12.55;11.25;;;;;;;;;;5057770;28;20471;-85
2022/07/27 10:41:30;;;;;;;13.00;11.60;;;;;;;;;;5068776;28;20048;-84
2022/07/27 10:44:20;;;;;;;12.77;11.38;;;;;;;;;;5054905;28;20021;-85
2022/07/27 10:46:55;;;;;;;12.63;10.63;;;;;;;;;;5035414;28;20079;-85
2022/07/27 10:49:34;;;;;;;11.95;10.73;;;;;;;;;;5053417;28;20064;-84
2022/07/27 10:52:01;;;;;;;12.80;10.77;;;;;;;;;;5055118;28;20037;-85
2022/07/27 10:54:32;;;;;;;13.10;10.63;;;;;;;;;;5038330;28;20024;-85
2022/07/27 10:56:59;;;;;;;11.85;10.43;;;;;;;;;;5044260;28;20032;-85
2022/07/27 10:59:37;;;;;;;12.43;10.05;;;;;;;;;;5054955;28;20037;-85
2022/07/27 11:02:04;;;;;;;11.85;10.65;;;;;;;;;;5053592;28;20490;-85
2022/07/27 11:04:32;;;;;;;12.68;10.88;;;;;;;;;;5055697;28;20036;-84
2022/07/27 11:07:02;;;;;;;13.27;11.60;;;;;;;;;;5037595;28;20037;-84
2022/07/27 11:09:41;;;;;;;13.38;11.85;;;;;;;;;;5060727;28;20021;-85
2022/07/27 11:12:08;;;;;;;12.57;10.88;;;;;;;;;;5048468;28;20434;-84
2022/07/27 11:14:45;;;;;;;14.02;11.45;;;;;;;;;;5054257;28;20487;-85
2022/07/27 11:17:11;;;;;;;14.20;12.20;;;;;;;;;;5055558;28;20557;-85
2022/07/27 11:19:37;;;;;;;14.20;11.95;;;;;;;;;;5040055;28;20377;-85
2022/07/27 11:22:03;;;;;;;12.50;11.18;;;;;;;;;;5058598;28;20041;-85
2022/07/27 11:24:29;;;;;;;14.00;12.48;;;;;;;;;;5054762;28;20095;-85
2022/07/27 11:26:55;;;;;;;14.18;12.57;;;;;;;;;;5037840;28;20029;-85
2022/07/27 11:29:22;;;;;;;15.85;13.20;;;;;;;;;;5051193;28;20466;-84
2022/07/27 11:31:50;;;;;;;14.55;12.43;;;;;;;;;;5034745;28;20018;-85
2022/07/27 11:34:16;;;;;;;14.25;12.48;;;;;;;;;;5054918;28;20548;-84
2022/07/27 11:36:44;;;;;;;13.65;11.80;;;;;;;;;;5065499;28;20071;-84
2022/07/27 11:39:11;;;;;;;14.18;12.68;;;;;;;;;;5073424;28;20017;-82
2022/07/27 11:41:38;;;;;;;16.98;13.85;;;;;;;;;;5063982;28;20061;-84
2022/07/27 11:44:06;;;;;;;14.50;12.98;;;;;;;;;;5051079;28;20227;-84
2022/07/27 11:46:33;;;;;;;15.40;13.00;;;;;;;;;;5045560;28;20118;-84
2022/07/27 11:49:05;;;;;;;16.85;14.57;;;;;;;;;;5051347;28;20064;-84
2022/07/27 11:51:32;;;;;;;18.58;14.25;;;;;;;;;;5054202;28;20029;-85
2022/07/27 11:53:59;;;;;;;17.50;15.70;;;;;;;;;;5035264;28;20458;-85
2022/07/27 11:56:26;;;;;;;16.25;14.55;;;;;;;;;;5042729;28;20045;-84
2022/07/27 11:59:05;;;;;;;16.25;14.52;;;;;;;;;;5040061;28;20433;-83
2022/07/27 12:01:36;;;;;;;17.75;15.13;;;;;;;;;;5039874;28;20097;-84
2022/07/27 12:04:07;;;;;;;17.15;15.23;;;;;;;;;;5057667;28;20056;-84
2022/07/27 12:06:33;;;;;;;17.48;15.18;;;;;;;;;;5061306;28;20038;-82
2022/07/27 12:09:01;;;;;;;16.48;14.75;;;;;;;;;;5054018;28;20029;-84
2022/07/27 12:11:45;;;;;;;17.30;15.07;;;;;;;;;;5039533;28;20543;-84
2022/07/27 12:14:14;;;;;;;17.17;15.38;;;;;;;;;;5061050;28;20048;-84
2022/07/27 12:16:40;;;;;;;11.48;8.38;;;;;;;;;;5038140;28;20032;-84
2022/07/27 12:19:07;;;;;;;8.45;4.88;;;;;;;;;;5055366;28;20499;-85
2022/07/27 12:21:33;;;;;;;7.35;4.85;;;;;;;;;;5050748;28;20033;-84
2022/07/27 12:23:59;;;;;;;6.45;4.00;;;;;;;;;;5031734;28;20355;-84
2022/07/27 12:26:25;;;;;;;5.35;3.65;;;;;;;;;;5052774;28;20037;-84
2022/07/27 12:29:05;;;;;;;6.43;4.05;;;;;;;;;;5053686;28;20049;-84
2022/07/27 12:31:31;;;;;;;7.00;3.92;;;;;;;;;;5037019;28;20028;-84
2022/07/27 12:33:58;;;;;;;5.88;3.63;;;;;;;;;;5035792;28;20078;-84
2022/07/27 12:36:26;;;;;;;6.35;3.85;;;;;;;;;;5051927;28;20115;-85
2022/07/27 12:38:52;;;;;;;6.30;3.92;;;;;;;;;;5066411;28;20029;-84
2022/07/27 12:41:29;;;;;;;6.32;3.35;;;;;;;;;;5035296;28;20037;-84
2022/07/27 12:44:08;;;;;;;6.03;3.83;;;;;;;;;;5036385;28;20083;-84
2022/07/27 12:46:51;;;;;;;5.40;3.72;;;;;;;;;;5052956;28;20112;-84
2022/07/27 12:49:17;;;;;;;7.07;4.25;;;;;;;;;;5035683;28;20024;-83
2022/07/27 12:51:43;;;;;;;6.68;4.78;;;;;;;;;;5052553;28;20041;-84
2022/07/27 12:54:09;;;;;;;7.75;4.00;;;;;;;;;;5059104;28;20545;-84
2022/07/27 12:56:35;;;;;;;5.82;3.78;;;;;;;;;;5073261;28;20063;-84
2022/07/27 12:59:02;;;;;;;6.68;4.32;;;;;;;;;;5054640;28;20068;-84
2022/07/27 13:01:28;;;;;;;6.30;3.78;;;;;;;;;;5051003;28;20444;-84
2022/07/27 13:03:54;;;;;;;6.00;3.85;;;;;;;;;;5036418;28;20111;-84
2022/07/27 13:06:20;;;;;;;6.55;3.55;;;;;;;;;;5053001;28;20517;-84
2022/07/27 13:08:46;;;;;;;6.40;4.40;;;;;;;;;;5053518;28;20109;-85
2022/07/27 13:11:13;;;;;;;6.05;3.60;;;;;;;;;;5040773;28;20546;-84
2022/07/27 13:13:39;;;;;;;5.97;3.20;;;;;;;;;;5053121;28;20052;-85
2022/07/27 13:16:05;;;;;;;5.60;3.15;;;;;;;;;;5053410;28;20029;-84
2022/07/27 13:18:31;;;;;;;5.63;2.88;;;;;;;;;;5050598;28;20089;-83
2022/07/27 13:20:57;;;;;;;5.80;3.10;;;;;;;;;;5066040;28;20021;-84
2022/07/27 13:23:23;;;;;;;4.70;2.95;;;;;;;;;;5055742;28;20025;-83
2022/07/27 13:25:51;;;;;;;5.35;2.97;;;;;;;;;;5056641;28;20506;-84
2022/07/27 13:28:17;;;;;;;9.15;4.10;;;;;;;;;;5053846;28;20449;-84
2022/07/27 13:30:43;;;;;;;5.35;2.88;;;;;;;;;;5057724;28;20028;-84
2022/07/27 13:33:09;;;;;;;4.70;2.70;;;;;;;;;;5034827;28;20017;-85
2022/07/27 13:35:35;;;;;;;5.35;3.10;;;;;;;;;;5051118;28;20027;-84
2022/07/27 13:38:01;;;;;;;5.95;3.00;;;;;;;;;;5055843;28;20029;-84
2022/07/27 13:40:27;;;;;;;5.97;3.10;;;;;;;;;;5063479;28;20027;-84
2022/07/27 13:42:53;;;;;;;5.60;3.17;;;;;;;;;;5035193;28;20029;-85
2022/07/27 13:45:19;;;;;;;5.53;3.00;;;;;;;;;;5041457;28;20025;-83
2022/07/27 13:47:45;;;;;;;4.70;2.60;;;;;;;;;;5043529;28;20020;-84
2022/07/27 13:50:13;;;;;;;4.93;2.90;;;;;;;;;;5053371;28;20020;-85
2022/07/27 13:52:39;;;;;;;5.38;2.25;;;;;;;;;;5055501;28;20032;-84
2022/07/27 13:55:05;;;;;;;5.43;2.83;;;;;;;;;;5055423;28;20025;-86
2022/07/27 13:57:31;;;;;;;4.18;2.33;;;;;;;;;;5071520;28;20029;-84
2022/07/27 13:59:58;;;;;;;4.63;2.90;;;;;;;;;;5054060;28;20506;-84
2022/07/27 14:02:24;;;;;;;4.78;2.60;;;;;;;;;;5034536;28;20544;-84
2022/07/27 14:04:50;;;;;;;4.72;2.83;;;;;;;;;;5052819;28;20116;-85
2022/07/27 14:07:17;;;;;;;7.20;4.18;;;;;;;;;;5031203;28;20472;-84
2022/07/27 14:12:28;;;;;;;4.82;3.10;;;;;;;;;;5066299;28;20028;-83
2022/07/27 14:14:55;;;;;;;6.78;2.90;;;;;;;;;;5054925;28;20032;-83
2022/07/27 14:17:21;;;;;;;5.60;3.38;;;;;;;;;;5055641;28;20029;-85
2022/07/27 14:19:47;;;;;;;7.47;3.75;;;;;;;;;;5075205;28;20032;-85
2022/07/27 14:22:13;;;;;;;5.88;3.17;;;;;;;;;;5052999;28;20025;-84
2022/07/27 14:24:40;;;;;;;6.20;3.20;;;;;;;;;;5051534;28;20017;-83
2022/07/27 14:27:06;;;;;;;5.60;3.08;;;;;;;;;;5058445;28;20051;-85
2022/07/27 14:29:33;;;;;;;5.15;3.03;;;;;;;;;;5057316;28;20095;-85
2022/07/27 14:31:59;;;;;;;5.05;3.15;;;;;;;;;;5048944;28;20025;-83